EFSI/SJY METAR and TAF weather

Enter ICAO airport designator
Station Type Date Time Source
EFSI METAR 2020/09/18 17:20 UTC NOAA

EFSI 181720Z AUTO 28007KT CAVOK 12/06 Q1013


Station Type Date Time Source
EFSI Decoded METAR 2020/09/18 17:20 UTC NOAA

Seinajoki-Ilmajok, Finland (EFSI) 62-41-37N 022-49-55E
Sep 18, 2020 - 01:20 PM EDT / 2020.09.18 1720 UTC
Wind: from the W (280 degrees) at 8 MPH (7 KT):0
Visibility: greater than 7 mile(s):0
Temperature: 53 F (12 C)
Dew Point: 42 F (6 C)
Relative Humidity: 66%
Pressure (altimeter): 29.91 in. Hg (1013 hPa)
ob: EFSI 181720Z AUTO 28007KT CAVOK 12/06 Q1013
cycle: 17

Station Type Date Time Source
EFSI TAF 2012/03/06 09:42 UTC NOAA

TAF EFSI 060830Z 0609/0621 12003KT CAVOK

Example: see airport list